createdAt,value
2018-12-04T00:02:30.510Z,17.33
2018-12-04T00:05:02.456Z,17.34
2018-12-04T00:07:34.213Z,17.37
2018-12-04T00:10:07.081Z,17.30
2018-12-04T00:12:39.634Z,17.29
2018-12-04T00:15:11.388Z,17.23
2018-12-04T00:17:47.650Z,17.22
2018-12-04T00:20:20.355Z,17.29
2018-12-04T00:22:52.249Z,17.21
2018-12-04T00:25:24.369Z,17.20
2018-12-04T00:27:57.434Z,17.20
2018-12-04T00:30:29.270Z,17.15
2018-12-04T00:33:01.909Z,17.11
2018-12-04T00:35:34.395Z,17.12
2018-12-04T00:38:07.065Z,17.06
2018-12-04T00:40:45.914Z,17.13
2018-12-04T00:43:17.720Z,17.10
2018-12-04T00:45:50.578Z,17.10
2018-12-04T00:48:22.416Z,17.17
2018-12-04T00:50:59.714Z,17.08
2018-12-04T00:53:40.466Z,17.09
2018-12-04T00:56:12.473Z,17.03
2018-12-04T00:58:47.466Z,17.07
2018-12-04T01:01:19.237Z,17.10
2018-12-04T01:03:52.073Z,17.01
2018-12-04T01:06:24.724Z,16.92
2018-12-04T01:08:56.773Z,16.94
2018-12-04T01:11:29.434Z,16.97
2018-12-04T01:14:03.224Z,16.97
2018-12-04T01:16:36.923Z,17.05
2018-12-04T01:19:13.386Z,17.06
2018-12-04T01:21:45.141Z,17.12
2018-12-04T01:24:16.711Z,16.99
2018-12-04T01:26:59.525Z,16.94
2018-12-04T01:29:34.407Z,16.87
2018-12-04T01:32:09.296Z,16.74
2018-12-04T01:34:43.110Z,16.85
2018-12-04T01:37:15.149Z,16.91
2018-12-04T01:39:46.764Z,19.49
2018-12-04T01:42:18.853Z,19.76
2018-12-04T01:44:50.640Z,19.75
2018-12-04T01:47:23.469Z,19.73
2018-12-04T01:49:56.053Z,19.69
2018-12-04T01:52:27.599Z,19.63
2018-12-04T01:54:59.471Z,19.75
2018-12-04T01:57:31.253Z,19.73
2018-12-04T02:00:03.835Z,19.76
2018-12-04T02:02:39.628Z,19.72
2018-12-04T02:05:11.643Z,19.74
2018-12-04T02:07:43.436Z,19.82
2018-12-04T02:10:17.315Z,19.91
2018-12-04T02:12:51.774Z,19.87
2018-12-04T02:15:23.981Z,19.86
2018-12-04T02:17:55.777Z,19.84
2018-12-04T02:20:27.824Z,19.84
2018-12-04T02:22:59.523Z,19.81
2018-12-04T02:25:31.535Z,19.85
2018-12-04T02:28:04.423Z,19.84
2018-12-04T02:30:36.327Z,19.85
2018-12-04T02:33:08.018Z,19.84
2018-12-04T02:35:39.937Z,19.85
2018-12-04T02:38:11.906Z,19.95
2018-12-04T02:40:43.956Z,19.96
2018-12-04T02:43:16.349Z,19.96
2018-12-04T02:45:48.253Z,19.73
2018-12-04T02:48:20.908Z,19.60
2018-12-04T02:50:52.962Z,19.59
2018-12-04T02:53:24.943Z,19.61
2018-12-04T02:55:56.837Z,19.68
2018-12-04T02:58:28.527Z,19.90
2018-12-04T03:01:00.898Z,19.98
2018-12-04T03:03:32.965Z,20.04
2018-12-04T03:06:04.875Z,20.16
2018-12-04T03:08:36.743Z,20.13
2018-12-04T03:11:08.377Z,20.14
2018-12-04T03:13:41.143Z,20.19
2018-12-04T03:16:13.009Z,20.19
2018-12-04T03:18:44.750Z,20.10
2018-12-04T03:21:16.756Z,20.02
2018-12-04T03:23:49.820Z,20.06
2018-12-04T03:26:21.659Z,20.05
2018-12-04T03:28:53.466Z,20.08
2018-12-04T03:31:25.236Z,20.13
2018-12-04T03:33:56.605Z,20.12
2018-12-04T03:36:29.021Z,20.18
2018-12-04T03:39:00.470Z,20.21
2018-12-04T03:41:32.198Z,20.24
2018-12-04T03:44:04.081Z,20.19
2018-12-04T03:46:36.295Z,20.15
2018-12-04T03:49:08.336Z,20.22
2018-12-04T03:51:40.204Z,20.18
2018-12-04T03:54:11.961Z,20.31
2018-12-04T03:56:43.809Z,20.30
2018-12-04T03:59:15.911Z,20.26
2018-12-04T04:01:48.238Z,20.32
2018-12-04T04:04:20.426Z,20.31
2018-12-04T04:06:52.677Z,20.38
2018-12-04T04:09:24.446Z,20.49
2018-12-04T04:11:58.327Z,20.58
2018-12-04T04:14:31.311Z,20.58
2018-12-04T04:17:03.188Z,20.50
2018-12-04T04:19:35.115Z,20.44
2018-12-04T04:22:07.030Z,20.54
2018-12-04T04:24:39.111Z,20.50
2018-12-04T04:27:10.674Z,20.56
2018-12-04T04:29:42.042Z,20.60
2018-12-04T04:32:14.480Z,20.62
2018-12-04T04:34:46.102Z,20.58
2018-12-04T04:37:17.985Z,20.54
2018-12-04T04:39:49.593Z,20.55
2018-12-04T04:42:21.269Z,20.49
2018-12-04T04:44:53.803Z,20.48
2018-12-04T04:47:25.677Z,20.46
2018-12-04T04:50:08.094Z,20.41
2018-12-04T04:52:39.719Z,20.47
2018-12-04T04:55:11.083Z,20.69
2018-12-04T04:57:43.375Z,20.71
2018-12-04T05:00:15.594Z,20.47
2018-12-04T05:02:48.919Z,20.63
2018-12-04T05:05:21.458Z,20.78
2018-12-04T05:17:13.710Z,20.82
2018-12-04T05:19:45.603Z,20.89
2018-12-04T05:22:17.254Z,21.01
2018-12-04T05:24:48.713Z,20.87
2018-12-04T05:27:27.092Z,20.80
2018-12-04T05:30:02.100Z,20.79
2018-12-04T05:32:33.826Z,20.82
2018-12-04T05:35:05.289Z,20.81
2018-12-04T05:37:36.907Z,20.83
2018-12-04T05:40:08.769Z,20.87
2018-12-04T05:42:40.399Z,20.87
2018-12-04T05:45:11.882Z,20.95
2018-12-04T05:47:43.603Z,21.02
2018-12-04T05:50:15.630Z,21.16
2018-12-04T05:55:36.620Z,21.25
2018-12-04T05:58:08.070Z,21.21
2018-12-04T06:00:39.584Z,21.25
2018-12-04T06:03:11.967Z,21.14
2018-12-04T06:05:43.770Z,21.19
2018-12-04T06:08:15.475Z,21.22
2018-12-04T06:10:46.954Z,21.30
2018-12-04T06:13:18.684Z,21.35
2018-12-04T06:15:50.985Z,21.46
2018-12-04T06:18:23.987Z,21.53
2018-12-04T06:20:58.207Z,21.56
2018-12-04T06:23:29.957Z,21.57
2018-12-04T06:26:01.336Z,21.60
2018-12-04T06:28:32.933Z,21.59
2018-12-04T06:31:04.442Z,21.68
2018-12-04T06:33:38.297Z,21.75
2018-12-04T06:36:10.891Z,21.78
2018-12-04T06:38:45.621Z,21.69
2018-12-04T06:41:18.241Z,21.74
2018-12-04T06:43:49.915Z,21.82
2018-12-04T06:46:21.524Z,21.81
2018-12-04T06:48:53.056Z,21.77
2018-12-04T06:51:25.977Z,21.89
2018-12-04T06:53:57.606Z,21.86
2018-12-04T06:56:29.078Z,21.83
2018-12-04T06:59:00.365Z,21.76
2018-12-04T07:01:32.001Z,21.89
2018-12-04T07:04:03.598Z,21.93
2018-12-04T07:06:35.026Z,21.99
2018-12-04T07:09:09.785Z,22.00
2018-12-04T07:11:43.299Z,21.99
2018-12-04T07:14:15.094Z,21.99
2018-12-04T07:16:46.638Z,22.02
2018-12-04T07:19:18.469Z,22.15
2018-12-04T07:21:50.463Z,22.15
2018-12-04T07:24:22.190Z,22.16
2018-12-04T07:26:54.769Z,22.17
2018-12-04T07:29:26.205Z,22.20
2018-12-04T07:31:57.662Z,22.38
2018-12-04T07:34:29.164Z,22.25
2018-12-04T07:37:01.758Z,22.20
2018-12-04T07:39:33.371Z,22.39
2018-12-04T07:42:05.056Z,22.48
2018-12-04T07:44:47.116Z,22.49
2018-12-04T07:47:19.521Z,22.53
2018-12-04T07:49:52.050Z,22.51
2018-12-04T07:52:26.129Z,22.40
2018-12-04T07:54:57.836Z,22.44
2018-12-04T07:57:35.342Z,22.54
2018-12-04T08:00:08.857Z,22.56
2018-12-04T08:02:41.449Z,22.51
2018-12-04T08:05:16.920Z,22.48
2018-12-04T08:07:48.292Z,22.70
2018-12-04T08:10:21.763Z,22.58
2018-12-04T08:12:53.088Z,22.49
2018-12-04T08:15:24.541Z,22.47
2018-12-04T08:17:57.012Z,22.65
2018-12-04T08:20:30.354Z,22.51
2018-12-04T08:23:02.559Z,22.54
2018-12-04T08:25:34.308Z,22.60
2018-12-04T08:28:05.951Z,22.57
2018-12-04T08:30:37.386Z,22.59
2018-12-04T08:33:08.800Z,22.66
2018-12-04T08:35:40.441Z,22.74
2018-12-04T08:38:12.348Z,22.64
2018-12-04T08:40:45.013Z,22.68
2018-12-04T08:43:16.280Z,22.77
2018-12-04T08:45:47.795Z,22.72
2018-12-04T08:48:19.279Z,22.86
2018-12-04T08:50:51.073Z,22.89
2018-12-04T08:53:23.986Z,23.09
2018-12-04T08:55:56.611Z,22.92
2018-12-04T08:58:28.094Z,22.95
2018-12-04T09:00:59.543Z,22.80
2018-12-04T09:03:30.952Z,22.81
2018-12-04T09:06:02.652Z,23.08
2018-12-04T09:08:34.092Z,23.12
2018-12-04T09:11:09.205Z,23.07
2018-12-04T09:13:41.971Z,22.96
2018-12-04T09:16:13.535Z,23.14
2018-12-04T09:18:45.137Z,23.06
2018-12-04T09:21:17.144Z,23.00
2018-12-04T09:23:50.396Z,22.98
2018-12-04T09:26:22.845Z,22.90
2018-12-04T09:28:54.144Z,22.84
2018-12-04T09:31:25.912Z,22.76
2018-12-04T09:33:58.911Z,22.79
2018-12-04T09:36:31.705Z,22.90
2018-12-04T09:39:03.494Z,22.90
2018-12-04T09:41:37.235Z,22.86
2018-12-04T09:44:08.669Z,22.78
2018-12-04T09:46:40.209Z,22.95
2018-12-04T09:49:11.752Z,22.93
2018-12-04T09:51:43.254Z,22.82
2018-12-04T09:54:15.223Z,22.83
2018-12-04T09:56:48.970Z,22.81
2018-12-04T09:59:20.404Z,22.82
2018-12-04T10:01:52.456Z,22.81
2018-12-04T10:04:27.361Z,22.73
2018-12-04T10:06:59.971Z,22.75
2018-12-04T10:09:31.431Z,22.71
2018-12-04T10:12:03.113Z,22.81
2018-12-04T10:14:34.461Z,22.80
2018-12-04T10:17:07.285Z,22.79
2018-12-04T10:19:39.515Z,22.94
2018-12-04T10:22:11.128Z,22.88
2018-12-04T10:24:43.079Z,22.90
2018-12-04T10:27:15.701Z,23.04
2018-12-04T10:29:47.064Z,22.93
2018-12-04T10:32:18.785Z,22.95
2018-12-04T10:34:50.114Z,23.08
2018-12-04T10:37:22.797Z,23.01
2018-12-04T10:39:54.652Z,22.91
2018-12-04T10:42:26.273Z,22.93
2018-12-04T10:44:59.175Z,22.86
2018-12-04T10:47:30.916Z,22.83
2018-12-04T10:50:02.328Z,22.90
2018-12-04T10:52:34.048Z,22.78
2018-12-04T10:55:06.310Z,22.85
2018-12-04T10:57:37.900Z,22.88
2018-12-04T12:35:54.257Z,21.91
2018-12-04T12:38:29.957Z,21.93
2018-12-04T12:41:01.650Z,21.94
2018-12-04T12:43:33.197Z,21.98
2018-12-04T12:46:04.671Z,21.91
2018-12-04T12:48:37.564Z,21.94
2018-12-04T12:51:10.129Z,21.95
2018-12-04T12:53:41.786Z,21.92
2018-12-04T12:56:26.613Z,21.91
2018-12-04T12:59:02.237Z,21.86
2018-12-04T13:01:33.873Z,21.84
2018-12-04T13:10:05.433Z,21.80
2018-12-04T13:12:39.106Z,21.87
2018-12-04T13:15:21.830Z,21.78
2018-12-04T13:18:06.950Z,21.69
2018-12-04T13:20:54.598Z,21.66
2018-12-04T13:23:29.889Z,21.64
2018-12-04T13:26:04.718Z,21.70
2018-12-04T13:28:44.269Z,21.71
2018-12-04T13:31:15.934Z,21.74
2018-12-04T13:33:47.389Z,21.86
2018-12-04T13:36:21.222Z,21.90
2018-12-04T13:38:54.975Z,21.96
2018-12-04T13:41:28.020Z,21.95
2018-12-04T13:44:03.248Z,21.76
2018-12-04T13:46:35.729Z,21.61
2018-12-04T13:49:07.341Z,21.70
2018-12-04T13:51:38.796Z,21.81
2018-12-04T13:54:13.877Z,21.86
2018-12-04T13:56:45.343Z,21.88
2018-12-04T13:59:17.800Z,21.86
2018-12-04T14:01:49.467Z,21.86
2018-12-04T14:04:21.304Z,21.85
2018-12-04T14:06:52.798Z,21.67
2018-12-04T14:09:26.549Z,21.62
2018-12-04T14:12:25.038Z,21.57
2018-12-04T14:14:56.777Z,21.59
2018-12-04T14:17:28.334Z,21.52
2018-12-04T14:20:00.125Z,21.50
2018-12-04T14:22:31.702Z,21.42
2018-12-04T14:25:03.368Z,21.37
2018-12-04T14:27:35.819Z,21.39
2018-12-04T14:30:10.254Z,21.35
2018-12-04T14:32:41.657Z,21.30
2018-12-04T14:35:13.464Z,21.29
2018-12-04T14:37:46.133Z,21.23
2018-12-04T14:40:21.891Z,21.18
2018-12-04T14:42:55.653Z,21.29
2018-12-04T14:45:28.203Z,21.17
2018-12-04T14:48:01.609Z,21.20
2018-12-04T14:50:33.281Z,21.21
2018-12-04T14:53:05.768Z,21.24
2018-12-04T14:55:37.455Z,21.24
2018-12-04T14:58:09.865Z,21.30
2018-12-04T15:00:41.716Z,21.45
2018-12-04T15:03:13.173Z,21.41
2018-12-04T15:05:45.796Z,21.38
2018-12-04T15:08:18.212Z,21.32
2018-12-04T15:10:49.605Z,21.52
2018-12-04T15:13:21.507Z,21.55
2018-12-04T15:15:53.124Z,21.28
2018-12-04T15:18:26.569Z,21.43
2018-12-04T15:20:58.255Z,21.45
2018-12-04T15:23:29.783Z,21.46
2018-12-04T15:26:02.744Z,21.38
2018-12-04T15:28:39.033Z,20.78
2018-12-04T15:31:21.227Z,20.57
2018-12-04T15:33:52.784Z,20.48
2018-12-04T15:36:24.483Z,20.41
2018-12-04T15:38:57.345Z,20.48
2018-12-04T15:41:30.048Z,20.43
2018-12-04T15:44:05.615Z,20.38
2018-12-04T15:46:38.197Z,20.48
2018-12-04T15:49:09.929Z,20.41
2018-12-04T15:51:44.653Z,20.31
2018-12-04T15:54:19.467Z,20.23
2018-12-04T15:56:55.814Z,21.20
2018-12-04T15:59:27.842Z,20.33
2018-12-04T16:02:00.457Z,20.21
2018-12-04T16:04:32.888Z,20.27
2018-12-04T16:07:04.519Z,20.21
2018-12-04T16:09:35.912Z,20.07
2018-12-04T16:12:09.412Z,20.05
2018-12-04T16:14:41.655Z,20.16
2018-12-04T16:17:15.335Z,20.02
2018-12-04T16:19:48.462Z,20.11
2018-12-04T16:22:20.992Z,20.02
2018-12-04T16:24:57.172Z,20.04
2018-12-04T16:27:33.625Z,19.84
2018-12-04T16:30:05.826Z,19.88
2018-12-04T16:32:37.511Z,19.86
2018-12-04T16:35:12.598Z,19.98
2018-12-04T16:37:44.272Z,19.87
2018-12-04T16:40:15.940Z,19.72
2018-12-04T16:42:47.476Z,19.84
2018-12-04T16:45:19.557Z,19.73
2018-12-04T16:47:52.164Z,19.65
2018-12-04T16:50:32.433Z,19.63
2018-12-04T16:53:03.965Z,19.69
2018-12-04T16:55:36.505Z,19.65
2018-12-04T16:58:12.784Z,19.50
2018-12-04T17:00:44.318Z,19.67
2018-12-04T17:03:19.829Z,19.59
2018-12-04T17:05:56.154Z,19.71
2018-12-04T17:08:28.633Z,19.48
2018-12-04T17:10:59.963Z,19.47
2018-12-04T17:13:37.578Z,19.40
2018-12-04T17:16:10.648Z,19.33
2018-12-04T17:18:42.192Z,19.33
2018-12-04T17:21:19.304Z,19.39
2018-12-04T17:23:51.011Z,19.31
2018-12-04T17:26:24.722Z,19.26
2018-12-04T17:28:56.254Z,19.18
2018-12-04T17:31:27.666Z,19.31
2018-12-04T17:33:59.251Z,19.32
2018-12-04T17:36:30.877Z,19.29
2018-12-04T17:39:02.424Z,19.14
2018-12-04T17:41:39.943Z,19.23
2018-12-04T17:44:14.659Z,19.18
2018-12-04T17:46:53.924Z,19.27
2018-12-04T17:49:29.324Z,19.30
2018-12-04T17:52:04.785Z,19.27
2018-12-04T17:54:37.542Z,19.14
2018-12-04T17:57:10.672Z,18.99
2018-12-04T17:59:44.895Z,19.04
2018-12-04T18:02:18.701Z,19.08
2018-12-04T18:04:57.505Z,18.96
2018-12-04T18:07:43.081Z,18.94
2018-12-04T18:10:20.642Z,18.96
2018-12-04T18:12:57.011Z,18.99
2018-12-04T18:15:35.343Z,18.92
2018-12-04T18:18:14.002Z,18.93
2018-12-04T18:20:58.518Z,18.89
2018-12-04T18:23:47.560Z,18.83
2018-12-04T18:26:20.626Z,18.73
2018-12-04T18:28:56.754Z,18.78
2018-12-04T18:31:33.798Z,18.67
2018-12-04T18:34:09.465Z,18.69
2018-12-04T18:36:52.348Z,18.83
2018-12-04T18:39:29.135Z,18.70
2018-12-04T18:42:01.637Z,18.78
2018-12-04T18:44:45.064Z,18.70
2018-12-04T18:47:18.718Z,18.65
2018-12-04T18:49:54.105Z,18.67
2018-12-04T18:52:34.639Z,18.70
2018-12-04T18:55:07.794Z,18.59
2018-12-04T18:57:45.996Z,18.56
2018-12-04T19:00:22.578Z,18.63
2018-12-04T19:06:04.824Z,18.53
2018-12-04T19:08:43.089Z,18.51
2018-12-04T19:11:16.732Z,18.47
2018-12-04T19:16:51.736Z,18.54
2018-12-04T19:22:27.673Z,18.42
2018-12-04T19:25:02.763Z,18.40
2018-12-04T19:27:35.210Z,18.37
2018-12-04T19:30:21.080Z,18.34
2018-12-04T19:32:56.383Z,18.36
2018-12-04T19:35:34.965Z,18.27
2018-12-04T19:38:11.245Z,18.20
2018-12-04T19:40:59.965Z,18.17
2018-12-04T19:43:56.254Z,18.27
2018-12-04T19:46:39.508Z,18.47
2018-12-04T19:49:14.664Z,18.41
2018-12-04T19:51:46.384Z,18.38
2018-12-04T19:54:38.557Z,18.33
2018-12-04T19:57:16.156Z,18.31
2018-12-04T19:59:52.944Z,18.43
2018-12-04T20:02:29.704Z,18.48
2018-12-04T20:05:01.290Z,18.37
2018-12-04T20:07:38.458Z,18.18
2018-12-04T20:10:13.313Z,18.44
2018-12-04T20:12:44.986Z,18.25
2018-12-04T20:15:23.579Z,18.41
2018-12-04T20:17:56.016Z,18.58
2018-12-04T20:20:27.465Z,18.61
2018-12-04T20:23:05.962Z,18.45
2018-12-04T20:25:43.541Z,18.44
2018-12-04T20:28:24.318Z,18.37
2018-12-04T20:30:55.825Z,18.33
2018-12-04T20:33:28.488Z,18.05
2018-12-04T20:36:03.753Z,18.10
2018-12-04T20:38:40.295Z,18.24
2018-12-04T20:41:11.871Z,18.09
2018-12-04T20:43:58.490Z,17.95
2018-12-04T20:46:35.280Z,18.07
2018-12-04T20:49:10.149Z,18.15
2018-12-04T20:51:41.798Z,17.95
2018-12-04T20:54:19.237Z,18.15
2018-12-04T20:56:55.004Z,18.08
2018-12-04T20:59:42.752Z,18.07
2018-12-04T21:02:20.729Z,17.92
2018-12-04T21:05:14.458Z,17.88
2018-12-04T21:07:51.950Z,17.98
2018-12-04T21:10:29.830Z,17.92
2018-12-04T21:13:01.156Z,17.80
2018-12-04T21:15:32.874Z,17.85
2018-12-04T21:18:16.135Z,17.79
2018-12-04T21:21:04.449Z,17.71
2018-12-04T21:23:39.336Z,17.65
2018-12-04T21:26:15.937Z,17.56
2018-12-04T21:28:55.570Z,17.61
2018-12-04T21:31:39.932Z,17.62
2018-12-04T21:34:25.715Z,17.62
2018-12-04T21:37:02.077Z,17.60
2018-12-04T21:39:36.217Z,17.51
2018-12-04T21:42:12.920Z,17.42
2018-12-04T21:46:51.344Z,17.40
2018-12-04T21:49:28.539Z,17.44
2018-12-04T21:52:05.877Z,17.42
2018-12-04T21:54:37.515Z,17.41
2018-12-04T21:57:16.187Z,17.43
2018-12-04T21:59:51.982Z,17.40
2018-12-04T22:02:23.521Z,17.37
2018-12-04T22:04:55.297Z,17.37
2018-12-04T22:07:26.940Z,17.54
2018-12-04T22:10:05.808Z,17.41
2018-12-04T22:12:37.044Z,17.24
2018-12-04T22:15:09.537Z,17.24
2018-12-04T22:17:40.934Z,17.24
2018-12-04T22:20:14.088Z,17.24
2018-12-04T22:25:48.323Z,17.27
2018-12-04T22:31:19.979Z,17.21
2018-12-04T22:33:56.513Z,17.28
2018-12-04T22:36:28.119Z,17.16
2018-12-04T22:39:09.437Z,17.19
2018-12-04T22:41:42.377Z,17.11
2018-12-04T22:44:13.735Z,17.14
2018-12-04T22:46:49.023Z,17.18
2018-12-04T22:49:26.369Z,17.24
2018-12-04T22:51:57.959Z,17.13
2018-12-04T22:54:32.681Z,17.07
2018-12-04T22:57:09.117Z,17.04
2018-12-04T23:00:00.913Z,17.05
2018-12-04T23:02:41.908Z,17.06
2018-12-04T23:05:31.493Z,17.10
2018-12-04T23:08:06.497Z,17.09
2018-12-04T23:13:36.994Z,17.08
2018-12-04T23:16:12.365Z,17.03
2018-12-04T23:18:49.062Z,16.88
2018-12-04T23:21:25.224Z,16.93
2018-12-04T23:23:57.080Z,16.86
2018-12-04T23:26:33.206Z,16.92
2018-12-04T23:32:10.545Z,17.05
2018-12-04T23:34:51.644Z,17.08
2018-12-04T23:37:27.197Z,17.26
2018-12-04T23:40:07.519Z,16.91
2018-12-04T23:45:37.734Z,16.96
2018-12-04T23:48:09.698Z,17.01
2018-12-04T23:50:41.563Z,16.96
2018-12-04T23:53:15.722Z,16.79
2018-12-04T23:55:54.454Z,16.59
2018-12-04T23:58:25.928Z,16.67
